createdAt,value
2022-10-17T00:01:54.578Z,100881.44
2022-10-17T00:06:56.150Z,100882.81
2022-10-17T00:11:57.682Z,100884.13
2022-10-17T00:16:59.183Z,100884.50
2022-10-17T00:22:00.711Z,100884.50
2022-10-17T00:27:02.259Z,100884.69
2022-10-17T00:32:03.812Z,100887.53
2022-10-17T00:37:05.469Z,100881.59
2022-10-17T00:42:07.120Z,100883.84
2022-10-17T00:47:13.859Z,100881.78
2022-10-17T00:52:21.451Z,100879.59
2022-10-17T00:57:22.991Z,100886.19
2022-10-17T01:02:25.248Z,100885.16
2022-10-17T01:07:30.810Z,100886.84
2022-10-17T01:12:59.528Z,100882.81
2022-10-17T01:18:22.279Z,100889.56
2022-10-17T01:23:35.774Z,100884.66
2022-10-17T01:29:11.013Z,100873.69
2022-10-17T01:34:22.135Z,100874.38
2022-10-17T01:39:28.106Z,100880.78
2022-10-17T01:45:00.141Z,100876.03
2022-10-17T01:50:14.115Z,100888.16
2022-10-17T01:55:22.911Z,100888.19
2022-10-17T02:00:26.245Z,100881.28
2022-10-17T02:05:39.168Z,100872.38
2022-10-17T02:11:01.975Z,100864.47
2022-10-17T02:16:15.489Z,100862.59
2022-10-17T02:21:41.966Z,100860.72
2022-10-17T02:26:58.532Z,100861.56
2022-10-17T02:32:04.593Z,100857.03
2022-10-17T02:37:08.063Z,100857.66
2022-10-17T02:42:11.672Z,100863.75
2022-10-17T02:47:25.698Z,100870.47
2022-10-17T02:52:31.032Z,100875.22
2022-10-17T02:57:40.380Z,100871.16
2022-10-17T03:02:52.937Z,100873.03
2022-10-17T03:07:55.531Z,100875.69
2022-10-17T03:12:58.808Z,100868.63
2022-10-17T03:18:00.450Z,100867.94
2022-10-17T03:23:02.214Z,100864.56
2022-10-17T03:28:05.516Z,100872.00
2022-10-17T03:33:07.838Z,100879.94
2022-10-17T03:38:09.476Z,100875.41
2022-10-17T03:43:11.880Z,100884.81
2022-10-17T03:48:14.728Z,100882.28
2022-10-17T03:53:16.462Z,100880.44
2022-10-17T03:58:18.070Z,100881.44
2022-10-17T04:03:19.689Z,100888.84
2022-10-17T04:08:22.170Z,100886.47
2022-10-17T04:13:38.976Z,100904.72
2022-10-17T04:18:41.678Z,100903.03
2022-10-17T04:23:43.367Z,100911.78
2022-10-17T04:28:56.557Z,100909.09
2022-10-17T04:33:58.144Z,100907.22
2022-10-17T04:39:02.910Z,100908.44
2022-10-17T04:44:05.489Z,100908.44
2022-10-17T04:49:11.250Z,100923.91
2022-10-17T04:54:17.118Z,100924.41
2022-10-17T04:59:22.189Z,100924.94
2022-10-17T05:04:33.308Z,100930.03
2022-10-17T05:09:35.412Z,100935.41
2022-10-17T05:14:36.920Z,100941.97
2022-10-17T05:19:38.942Z,100944.19
2022-10-17T05:24:41.973Z,100944.88
2022-10-17T05:29:45.649Z,100955.31
2022-10-17T05:34:59.026Z,100956.97
2022-10-17T05:40:01.436Z,100955.97
2022-10-17T05:45:05.070Z,100959.81
2022-10-17T05:50:08.530Z,100969.50
2022-10-17T05:55:24.701Z,100972.84
2022-10-17T06:00:26.877Z,100967.16
2022-10-17T06:05:35.308Z,100974.94
2022-10-17T06:10:38.458Z,100973.91
2022-10-17T06:15:40.335Z,100976.66
2022-10-17T06:20:45.409Z,100989.47
2022-10-17T06:25:49.366Z,100990.16
2022-10-17T06:30:51.814Z,101015.13
2022-10-17T06:35:54.824Z,101018.16
2022-10-17T06:41:09.641Z,101021.91
2022-10-17T06:46:11.265Z,101021.22
2022-10-17T06:51:16.800Z,101020.19
2022-10-17T06:56:28.841Z,101024.09
2022-10-17T07:01:46.086Z,101031.00
2022-10-17T07:06:49.303Z,101044.31
2022-10-17T07:11:54.063Z,101040.78
2022-10-17T07:16:56.715Z,101053.28
2022-10-17T07:21:59.781Z,101054.28
2022-10-17T07:27:02.206Z,101061.38
2022-10-17T07:32:06.454Z,101046.22
2022-10-17T07:37:09.939Z,101057.00
2022-10-17T07:42:14.567Z,101056.47
2022-10-17T07:47:16.365Z,101064.44
2022-10-17T07:52:18.479Z,101068.78
2022-10-17T07:57:19.966Z,101064.06
2022-10-17T08:02:24.499Z,101068.13
2022-10-17T08:07:29.372Z,101067.44
2022-10-17T08:12:34.192Z,101065.69
2022-10-17T08:17:37.114Z,101069.56
2022-10-17T08:22:38.606Z,101076.16
2022-10-17T08:27:40.104Z,101074.44
2022-10-17T08:32:41.996Z,101071.00
2022-10-17T08:37:43.667Z,101069.69
2022-10-17T08:43:10.939Z,101064.94
2022-10-17T08:48:21.644Z,101077.75
2022-10-17T08:53:38.505Z,101075.38
2022-10-17T08:58:40.045Z,101070.78
2022-10-17T09:04:12.955Z,101070.06
2022-10-17T09:09:36.633Z,101071.06
2022-10-17T09:14:48.734Z,101067.50
2022-10-17T09:20:00.860Z,101070.91
2022-10-17T09:25:07.291Z,101071.53
2022-10-17T09:30:45.799Z,101077.34
2022-10-17T09:35:48.578Z,101078.34
2022-10-17T09:40:57.868Z,101067.50
2022-10-17T09:46:22.615Z,101073.25
2022-10-17T09:51:26.175Z,101077.94
2022-10-17T09:56:28.038Z,101071.16
2022-10-17T10:01:31.188Z,101062.00
2022-10-17T10:06:33.066Z,101059.97
2022-10-17T10:11:49.877Z,101061.31
2022-10-17T10:16:53.749Z,101065.34
2022-10-17T10:22:25.387Z,101057.50
2022-10-17T10:27:27.935Z,101057.34
2022-10-17T10:32:32.359Z,101069.13
2022-10-17T10:37:40.159Z,101058.41
2022-10-17T10:42:42.280Z,101051.81
2022-10-17T10:47:58.648Z,101029.03
2022-10-17T10:53:24.859Z,101034.53
2022-10-17T10:58:42.026Z,101035.22
2022-10-17T11:04:12.329Z,101048.97
2022-10-17T11:09:24.282Z,101052.53
2022-10-17T11:14:41.860Z,101053.50
2022-10-17T11:19:56.491Z,101053.34
2022-10-17T11:24:59.773Z,101037.28
2022-10-17T11:30:01.710Z,101033.72
2022-10-17T11:35:15.361Z,101030.28
2022-10-17T11:40:31.382Z,101022.72
2022-10-17T11:45:41.008Z,101016.00
2022-10-17T11:56:10.023Z,101002.31
2022-10-17T12:01:26.495Z,100999.88
2022-10-17T12:06:48.099Z,100986.69
2022-10-17T12:12:00.496Z,100987.13
2022-10-17T12:17:02.706Z,100975.06
2022-10-17T12:22:20.162Z,100966.63
2022-10-17T12:27:32.700Z,100973.97
2022-10-17T12:33:00.480Z,100958.72
2022-10-17T12:37:58.771Z,100958.75
2022-10-17T12:43:16.300Z,100950.78
2022-10-17T12:48:36.295Z,100955.44
2022-10-17T12:53:45.262Z,100945.72
2022-10-17T12:58:49.127Z,100936.00
2022-10-17T13:03:52.493Z,100937.81
2022-10-17T13:09:04.161Z,100942.06
2022-10-17T13:14:13.099Z,100939.16
2022-10-17T13:19:17.748Z,100946.28
2022-10-17T13:24:23.782Z,100946.22
2022-10-17T13:29:25.956Z,100941.69
2022-10-17T13:34:28.100Z,100940.25
2022-10-17T13:39:52.447Z,100947.31
2022-10-17T13:44:55.967Z,100936.88
2022-10-17T13:49:58.066Z,100933.31
2022-10-17T13:55:11.081Z,100935.59
2022-10-17T14:00:20.861Z,100943.94
2022-10-17T14:05:23.677Z,100954.00
2022-10-17T14:10:27.461Z,100951.28
2022-10-17T14:15:30.955Z,100961.75
2022-10-17T14:21:29.209Z,100954.00
2022-10-17T14:26:21.473Z,100953.75
2022-10-17T14:31:26.108Z,100956.66
2022-10-17T14:36:38.549Z,100955.16
2022-10-17T14:41:44.215Z,100963.31
2022-10-17T14:46:50.498Z,100965.84
2022-10-17T14:52:18.382Z,100958.84
2022-10-17T14:57:29.103Z,100965.72
2022-10-17T15:02:31.144Z,100962.78
2022-10-17T15:07:32.854Z,100974.81
2022-10-17T15:12:34.454Z,100982.34
2022-10-17T15:17:35.970Z,100990.69
2022-10-17T15:22:37.484Z,100983.03
2022-10-17T15:27:39.064Z,100990.56
2022-10-17T15:32:40.562Z,100992.59
2022-10-17T15:37:42.912Z,100995.22
2022-10-17T15:42:44.518Z,101008.72
2022-10-17T15:47:51.646Z,100998.22
2022-10-17T15:52:53.486Z,101013.63
2022-10-17T15:57:55.001Z,101013.53
2022-10-17T16:02:56.546Z,101003.88
2022-10-17T16:07:58.373Z,101002.56
2022-10-17T16:12:59.856Z,101015.88
2022-10-17T16:18:04.238Z,101015.13
2022-10-17T16:23:08.450Z,101029.28
2022-10-17T16:28:11.842Z,101037.31
2022-10-17T16:33:13.577Z,101031.59
2022-10-17T16:38:15.146Z,101032.34
2022-10-17T16:43:16.634Z,101030.41
2022-10-17T16:48:18.183Z,101030.63
2022-10-17T16:53:19.729Z,101033.16
2022-10-17T16:58:21.226Z,101045.97
2022-10-17T17:03:22.744Z,101055.59
2022-10-17T17:08:24.305Z,101060.00
2022-10-17T17:13:26.552Z,101060.00
2022-10-17T17:18:28.700Z,101059.38
2022-10-17T17:23:31.028Z,101059.72
2022-10-17T17:28:33.571Z,101066.88
2022-10-17T17:33:35.152Z,101067.78
2022-10-17T17:38:36.960Z,101073.88
2022-10-17T17:43:38.438Z,101063.22
2022-10-17T17:48:41.082Z,101070.31
2022-10-17T17:53:42.607Z,101066.44
2022-10-17T17:58:46.637Z,101073.84
2022-10-17T18:03:49.866Z,101072.16
2022-10-17T18:08:53.532Z,101061.72
2022-10-17T18:13:56.856Z,101054.78
2022-10-17T18:19:02.608Z,101055.03
2022-10-17T18:24:07.851Z,101058.13
2022-10-17T18:29:09.401Z,101061.44
2022-10-17T18:34:10.893Z,101064.66
2022-10-17T18:39:12.427Z,101061.00
2022-10-17T18:44:15.437Z,101061.34
2022-10-17T18:49:25.034Z,101068.94
2022-10-17T18:54:26.795Z,101058.41
2022-10-17T18:59:28.330Z,101052.47
2022-10-17T19:04:29.844Z,101049.81
2022-10-17T19:09:31.473Z,101050.34
2022-10-17T19:14:33.005Z,101060.81
2022-10-17T19:19:34.576Z,101052.78
2022-10-17T19:24:36.105Z,101056.78
2022-10-17T19:29:38.012Z,101055.50
2022-10-17T19:34:39.498Z,101066.50
2022-10-17T19:39:40.969Z,101066.91
2022-10-17T19:44:42.462Z,101066.88
2022-10-17T19:49:49.064Z,101073.16
2022-10-17T19:54:51.508Z,101086.34
2022-10-17T19:59:55.830Z,101085.69
2022-10-17T20:05:13.890Z,101093.09
2022-10-17T20:10:19.272Z,101088.38
2022-10-17T20:15:20.806Z,101091.59
2022-10-17T20:20:22.337Z,101102.78
2022-10-17T20:25:23.909Z,101113.75
2022-10-17T20:30:25.584Z,101113.75
2022-10-17T20:35:27.137Z,101103.28
2022-10-17T20:40:36.112Z,101109.88
2022-10-17T20:45:50.649Z,101115.66
2022-10-17T20:50:53.618Z,101124.75
2022-10-17T20:56:07.206Z,101128.31
2022-10-17T21:01:10.118Z,101130.16
2022-10-17T21:06:11.736Z,101128.28
2022-10-17T21:11:19.037Z,101130.66
2022-10-17T21:16:20.609Z,101106.81
2022-10-17T21:21:26.617Z,101114.09
2022-10-17T21:26:29.154Z,101118.16
2022-10-17T21:31:30.894Z,101113.44
2022-10-17T21:36:32.489Z,101105.16
2022-10-17T21:41:34.129Z,101110.75
2022-10-17T21:46:35.609Z,101116.16
2022-10-17T21:51:37.136Z,101112.41
2022-10-17T21:56:38.702Z,101114.78
2022-10-17T22:01:43.909Z,101112.25
2022-10-17T22:06:47.558Z,101132.84
2022-10-17T22:11:51.851Z,101137.78
2022-10-17T22:16:53.625Z,101127.78
2022-10-17T22:21:55.161Z,101126.28
2022-10-17T22:26:56.722Z,101126.25
2022-10-17T22:31:58.476Z,101131.66
2022-10-17T22:37:00.185Z,101140.16
2022-10-17T22:42:01.695Z,101148.56
2022-10-17T22:47:03.365Z,101141.00
2022-10-17T22:52:04.980Z,101140.28
2022-10-17T22:57:06.520Z,101141.81
2022-10-17T23:02:08.043Z,101136.72
2022-10-17T23:07:13.965Z,101144.34
2022-10-17T23:12:15.473Z,101146.34
2022-10-17T23:17:17.016Z,101140.13
2022-10-17T23:22:18.527Z,101133.00
2022-10-17T23:27:20.094Z,101133.31
2022-10-17T23:32:21.609Z,101129.63
2022-10-17T23:37:23.147Z,101138.56
2022-10-17T23:42:24.713Z,101131.00
2022-10-17T23:47:26.213Z,101128.44
2022-10-17T23:52:27.754Z,101127.78
2022-10-17T23:57:29.617Z,101129.97
